Seattle, Washington
Current Conditions -  °F | °C
As of 1:53 PM on Sunday 25 Jan 2015 (Local Time) from KBFI Reporting Station
Scattered Clouds Scattered Clouds  
Wind Chill: 63°   Ceiling: Unl
Heat Index: 63°   Visibility: 10mi
Dew Point: 50°   Wind: 5mph
Humidity: 63%   Direction: 310°NW
Pressure: 30.09"   Gusts: NA
Location:  47.6°N, 122.32°W
Report Text: KBFI 252153Z 31004KT 10SM SCT200 17/10 A3009 RMK AO2 SLP188 T01720100
Loading
Personal Weather Stations






























Interactive Weather Map New forecast layout! Learn more

10-Day Weather Forecast

Advertisements
Track Severe Weather on mobile